»·PEaware :: N512PC KGCN-KIFP

N512PC :: KGCN-KIFP

FLIGHT INFORMATION

Flight Status: Arrived
Operator: Privately registered:
United States
More flights under this callsign
Pilot: Frank W. (16848)
Aircraft: PILATUS PC-12 EAGLE
(PC12)
More flights by this aircraft type
Origin: KGCN Grand Canyon Natl Park
United States
Destination: KIFP Laughlin/Bullhead Intl
United States
More flights between these airports :: More routes between these airports
Route:
File this flight plan on PilotEdge
Remarks: VFR No Advisories
Altitude:
(Current/Filed)
14,500ft
Speed:
(Current/Filed)
220kts
Departed: 09-Aug-18 07:10 PM
Arrived: 09-Aug-18 07:48 PM
Distance/Time
Traveled:
127nm/0:38
Distance/Time
To Go:
Arrived

Flight Plot

Page will automatically refresh every two minutes.

Flight plan parsing failed; only flown route is shown


Map Options




Map Legend


Flown Route
Filed Route
Departure Airport
Arrival Airport
Navaid (VOR, NDB)
Fix

Horizontal Profiles

Position Reports

Time Latitude Longitude Heading Altitude Ground
Speed
09-Aug-18 19:00 35.959633 -112.136428 244 6630ft 0kts
09-Aug-18 19:01 35.959633 -112.136428 244 6630ft 0kts
09-Aug-18 19:02 35.959633 -112.136428 244 6630ft 0kts
09-Aug-18 19:03 35.959633 -112.136428 244 6630ft 0kts
09-Aug-18 19:04 35.959633 -112.136428 244 6630ft 0kts
09-Aug-18 19:05 35.959633 -112.136428 244 6630ft 0kts
09-Aug-18 19:06 35.959633 -112.136428 244 6630ft 0kts
09-Aug-18 19:07 35.961087 -112.136297 309 6628ft 0kts
09-Aug-18 19:08 35.961087 -112.136297 309 6628ft 0kts
09-Aug-18 19:09 35.961087 -112.136297 309 6628ft 0kts
09-Aug-18 19:10 35.961228 -112.137515 223 6628ft 0kts
09-Aug-18 19:11 35.947232 -112.151432 219 7014ft 119kts
09-Aug-18 19:12 35.920886 -112.190518 256 8224ft 191kts
09-Aug-18 19:13 35.910003 -112.258066 249 9981ft 215kts
09-Aug-18 19:14 35.885818 -112.323130 246 11720ft 224kts
09-Aug-18 19:15 35.859197 -112.393232 247 13555ft 228kts
09-Aug-18 19:16 35.831492 -112.466433 247 14525ft 260kts
09-Aug-18 19:17 35.801384 -112.545603 247 14532ft 245kts
09-Aug-18 19:18 35.772864 -112.620402 247 14500ft 240kts
09-Aug-18 19:19 35.745465 -112.692057 246 14498ft 238kts
09-Aug-18 19:20 35.717310 -112.765369 246 14498ft 237kts
09-Aug-18 19:21 35.689286 -112.838181 247 14500ft 236kts
09-Aug-18 19:22 35.662076 -112.908846 248 14503ft 232kts
09-Aug-18 19:23 35.635282 -112.978483 248 14506ft 225kts
09-Aug-18 19:24 35.609015 -113.046633 247 14506ft 218kts
09-Aug-18 19:25 35.583154 -113.113247 247 14411ft 217kts
09-Aug-18 19:26 35.557452 -113.179437 247 14473ft 208kts
09-Aug-18 19:27 35.533071 -113.242153 247 14529ft 213kts
09-Aug-18 19:28 35.507268 -113.308392 247 14243ft 220kts
09-Aug-18 19:29 35.479755 -113.378905 247 13397ft 235kts
09-Aug-18 19:30 35.451391 -113.451388 247 12582ft 237kts
09-Aug-18 19:31 35.422422 -113.525346 247 11484ft 246kts
09-Aug-18 19:32 35.392722 -113.600937 247 10479ft 241kts
09-Aug-18 19:33 35.365418 -113.670008 247 10430ft 221kts
09-Aug-18 19:34 35.339285 -113.736213 247 10404ft 217kts
09-Aug-18 19:35 35.313277 -113.801941 247 10488ft 212kts
09-Aug-18 19:36 35.287679 -113.866529 247 10573ft 212kts
09-Aug-18 19:37 35.261349 -113.933074 247 9844ft 238kts
09-Aug-18 19:38 35.246990 -114.013865 260 8062ft 250kts
09-Aug-18 19:39 35.233624 -114.094802 260 7064ft 229kts
09-Aug-18 19:40 35.222031 -114.164739 260 6651ft 201kts
09-Aug-18 19:41 35.216309 -114.230140 268 6574ft 191kts
09-Aug-18 19:42 35.208925 -114.295784 269 6553ft 198kts
09-Aug-18 19:43 35.219822 -114.359870 282 6695ft 195kts
09-Aug-18 19:44 35.223017 -114.426924 272 6766ft 205kts
09-Aug-18 19:45 35.216328 -114.490298 258 6981ft 149kts
09-Aug-18 19:46 35.209253 -114.540500 236 5027ft 160kts
09-Aug-18 19:47 35.177755 -114.561591 172 1053ft 113kts
09-Aug-18 19:48 35.153304 -114.559265 176 661ft 50kts
09-Aug-18 19:49 35.151305 -114.558214 80 674ft 2kts
09-Aug-18 19:50 35.151274 -114.558059 89 675ft 0kts
09-Aug-18 19:51 35.153311 -114.557821 3 671ft 11kts
09-Aug-18 19:52 35.157974 -114.557757 87 666ft 28kts
09-Aug-18 19:53 35.158780 -114.555875 31 676ft 0kts
09-Aug-18 19:54 35.158780 -114.555875 31 676ft 0kts
09-Aug-18 19:55 35.158780 -114.555875 31 676ft 0kts
09-Aug-18 19:56 35.158780 -114.555875 31 676ft 0kts
09-Aug-18 19:57 35.158780 -114.555875 31 676ft 0kts
09-Aug-18 19:58 35.158780 -114.555875 31 676ft 0kts
09-Aug-18 19:59 35.158780 -114.555875 31 676ft 0kts
09-Aug-18 20:00 35.158780 -114.555875 31 676ft 0kts
09-Aug-18 20:01 35.158780 -114.555875 31 676ft 0kts
09-Aug-18 20:02 35.158780 -114.555875 31 676ft 0kts
09-Aug-18 20:03 35.158780 -114.555875 31 676ft 0kts

Navigation Log

Ident Type
Flight plan parsing failed, navigation log unavailable